sensor_id;sensor_type;location;lat;lon;timestamp;pressure;altitude;pressure_sealevel;temperature;humidity
72558;BME280;60583;50.094;8.748;2024-03-02T00:01:51;99218.38;;;6.17;98.57
72558;BME280;60583;50.094;8.748;2024-03-02T00:04:35;99222.06;;;6.16;97.51
72558;BME280;60583;50.094;8.748;2024-03-02T00:07:19;99185.06;;;5.82;97.90
72558;BME280;60583;50.094;8.748;2024-03-02T00:10:09;99233.66;;;6.15;97.81
72558;BME280;60583;50.094;8.748;2024-03-02T00:12:56;99196.16;;;5.99;97.11
72558;BME280;60583;50.094;8.748;2024-03-02T00:15:47;99209.22;;;6.13;97.72
72558;BME280;60583;50.094;8.748;2024-03-02T00:18:34;99229.41;;;6.27;98.83
72558;BME280;60583;50.094;8.748;2024-03-02T00:21:18;99178.19;;;5.94;99.63
72558;BME280;60583;50.094;8.748;2024-03-02T00:24:20;99184.56;;;6.06;100.00
72558;BME280;60583;50.094;8.748;2024-03-02T00:27:05;99201.50;;;6.18;100.00
72558;BME280;60583;50.094;8.748;2024-03-02T00:29:51;99219.63;;;6.21;100.00
72558;BME280;60583;50.094;8.748;2024-03-02T00:32:35;99208.81;;;6.16;100.00
72558;BME280;60583;50.094;8.748;2024-03-02T00:35:20;99220.25;;;6.30;100.00
72558;BME280;60583;50.094;8.748;2024-03-02T00:38:06;99219.25;;;6.31;99.49
72558;BME280;60583;50.094;8.748;2024-03-02T00:40:49;99147.28;;;5.88;100.00
72558;BME280;60583;50.094;8.748;2024-03-02T00:44:02;99207.41;;;6.20;100.00
72558;BME280;60583;50.094;8.748;2024-03-02T00:46:47;99183.72;;;5.99;100.00
72558;BME280;60583;50.094;8.748;2024-03-02T00:49:31;99156.31;;;5.66;100.00
72558;BME280;60583;50.094;8.748;2024-03-02T00:52:15;99164.22;;;5.59;100.00
72558;BME280;60583;50.094;8.748;2024-03-02T00:54:59;99163.38;;;5.59;100.00
72558;BME280;60583;50.094;8.748;2024-03-02T00:57:42;99200.31;;;5.80;100.00
72558;BME280;60583;50.094;8.748;2024-03-02T01:00:27;99185.84;;;5.76;100.00
72558;BME280;60583;50.094;8.748;2024-03-02T01:03:12;99179.53;;;5.77;100.00
72558;BME280;60583;50.094;8.748;2024-03-02T01:05:56;99173.84;;;5.73;100.00
72558;BME280;60583;50.094;8.748;2024-03-02T01:08:40;99209.81;;;6.09;100.00
72558;BME280;60583;50.094;8.748;2024-03-02T01:11:24;99183.88;;;5.85;100.00
72558;BME280;60583;50.094;8.748;2024-03-02T01:14:07;99216.66;;;5.97;99.68
72558;BME280;60583;50.094;8.748;2024-03-02T01:16:51;99181.56;;;5.75;99.13
72558;BME280;60583;50.094;8.748;2024-03-02T01:19:36;99213.00;;;5.91;99.05
72558;BME280;60583;50.094;8.748;2024-03-02T01:22:20;99154.63;;;5.52;99.06
72558;BME280;60583;50.094;8.748;2024-03-02T01:25:08;99217.59;;;5.76;99.15
72558;BME280;60583;50.094;8.748;2024-03-02T01:27:52;99176.16;;;5.49;99.27
72558;BME280;60583;50.094;8.748;2024-03-02T01:30:36;99218.38;;;5.70;99.30
72558;BME280;60583;50.094;8.748;2024-03-02T01:33:20;99126.91;;;5.00;99.41
72558;BME280;60583;50.094;8.748;2024-03-02T01:36:04;99212.78;;;5.52;99.21
72558;BME280;60583;50.094;8.748;2024-03-02T01:38:48;99224.47;;;5.36;100.00
72558;BME280;60583;50.094;8.748;2024-03-02T01:41:32;99176.75;;;5.10;100.00
72558;BME280;60583;50.094;8.748;2024-03-02T01:44:16;99192.66;;;5.51;100.00
72558;BME280;60583;50.094;8.748;2024-03-02T01:47:00;99199.47;;;5.39;100.00
72558;BME280;60583;50.094;8.748;2024-03-02T01:49:44;99193.47;;;5.17;99.19
72558;BME280;60583;50.094;8.748;2024-03-02T01:52:28;99217.47;;;5.22;100.00
72558;BME280;60583;50.094;8.748;2024-03-02T01:55:13;99153.22;;;4.87;100.00
72558;BME280;60583;50.094;8.748;2024-03-02T01:57:57;99193.91;;;5.21;100.00
72558;BME280;60583;50.094;8.748;2024-03-02T02:00:41;99177.59;;;5.17;100.00
72558;BME280;60583;50.094;8.748;2024-03-02T02:03:25;99140.94;;;5.01;100.00
72558;BME280;60583;50.094;8.748;2024-03-02T02:06:09;99181.53;;;5.28;100.00
72558;BME280;60583;50.094;8.748;2024-03-02T02:08:53;99148.91;;;5.07;100.00
72558;BME280;60583;50.094;8.748;2024-03-02T02:11:38;99139.50;;;4.98;100.00
72558;BME280;60583;50.094;8.748;2024-03-02T02:14:22;99182.47;;;5.13;100.00
72558;BME280;60583;50.094;8.748;2024-03-02T02:17:06;99175.53;;;5.06;100.00
72558;BME280;60583;50.094;8.748;2024-03-02T02:19:50;99166.91;;;4.97;100.00
72558;BME280;60583;50.094;8.748;2024-03-02T02:22:34;99166.16;;;5.03;100.00
72558;BME280;60583;50.094;8.748;2024-03-02T02:25:18;99157.50;;;4.88;100.00
72558;BME280;60583;50.094;8.748;2024-03-02T02:28:02;99138.63;;;4.64;100.00
72558;BME280;60583;50.094;8.748;2024-03-02T02:30:46;99162.81;;;4.88;100.00
72558;BME280;60583;50.094;8.748;2024-03-02T02:33:30;99148.66;;;4.75;100.00
72558;BME280;60583;50.094;8.748;2024-03-02T02:36:14;99158.97;;;4.91;100.00
72558;BME280;60583;50.094;8.748;2024-03-02T02:39:00;99161.63;;;4.97;100.00
72558;BME280;60583;50.094;8.748;2024-03-02T02:41:47;99159.94;;;4.90;100.00
72558;BME280;60583;50.094;8.748;2024-03-02T02:44:31;99150.34;;;4.82;100.00
72558;BME280;60583;50.094;8.748;2024-03-02T02:47:15;99170.47;;;4.83;100.00
72558;BME280;60583;50.094;8.748;2024-03-02T02:49:58;99168.34;;;4.72;100.00
72558;BME280;60583;50.094;8.748;2024-03-02T02:52:43;99169.75;;;4.68;100.00
72558;BME280;60583;50.094;8.748;2024-03-02T02:55:27;99158.53;;;4.66;100.00
72558;BME280;60583;50.094;8.748;2024-03-02T02:58:11;99147.94;;;4.60;100.00
72558;BME280;60583;50.094;8.748;2024-03-02T03:00:55;99146.69;;;4.56;100.00
72558;BME280;60583;50.094;8.748;2024-03-02T03:03:40;99146.38;;;4.65;100.00
72558;BME280;60583;50.094;8.748;2024-03-02T03:06:24;99113.47;;;4.40;100.00
72558;BME280;60583;50.094;8.748;2024-03-02T03:09:08;99155.25;;;4.58;100.00
72558;BME280;60583;50.094;8.748;2024-03-02T03:11:54;99145.25;;;4.53;100.00
72558;BME280;60583;50.094;8.748;2024-03-02T03:14:40;99134.25;;;4.49;99.68
72558;BME280;60583;50.094;8.748;2024-03-02T03:17:24;99127.41;;;4.55;99.79
72558;BME280;60583;50.094;8.748;2024-03-02T03:20:08;99117.44;;;4.50;99.05
72558;BME280;60583;50.094;8.748;2024-03-02T03:22:57;99135.22;;;4.42;99.31
72558;BME280;60583;50.094;8.748;2024-03-02T03:25:41;99121.41;;;4.19;99.59
72558;BME280;60583;50.094;8.748;2024-03-02T03:28:25;99138.91;;;4.26;100.00
72558;BME280;60583;50.094;8.748;2024-03-02T03:31:09;99146.59;;;4.42;100.00
72558;BME280;60583;50.094;8.748;2024-03-02T03:33:54;99142.69;;;4.38;99.82
72558;BME280;60583;50.094;8.748;2024-03-02T03:36:38;99136.28;;;4.26;99.96
72558;BME280;60583;50.094;8.748;2024-03-02T03:39:22;99136.72;;;4.30;99.66
72558;BME280;60583;50.094;8.748;2024-03-02T03:42:06;99149.34;;;4.34;99.49
72558;BME280;60583;50.094;8.748;2024-03-02T03:44:50;99118.13;;;4.17;100.00
72558;BME280;60583;50.094;8.748;2024-03-02T03:47:34;99143.06;;;4.35;100.00
72558;BME280;60583;50.094;8.748;2024-03-02T03:50:18;99131.31;;;4.17;100.00
72558;BME280;60583;50.094;8.748;2024-03-02T03:53:03;99140.38;;;4.08;100.00
72558;BME280;60583;50.094;8.748;2024-03-02T03:55:48;99144.97;;;4.20;100.00
72558;BME280;60583;50.094;8.748;2024-03-02T03:58:33;99123.78;;;4.14;100.00
72558;BME280;60583;50.094;8.748;2024-03-02T04:01:17;99148.72;;;4.11;100.00
72558;BME280;60583;50.094;8.748;2024-03-02T04:04:01;99153.56;;;4.08;100.00
72558;BME280;60583;50.094;8.748;2024-03-02T04:06:48;99152.22;;;4.18;100.00
72558;BME280;60583;50.094;8.748;2024-03-02T04:09:31;99159.72;;;4.15;100.00
72558;BME280;60583;50.094;8.748;2024-03-02T04:12:16;99157.06;;;4.15;100.00
72558;BME280;60583;50.094;8.748;2024-03-02T04:15:00;99135.59;;;3.97;100.00
72558;BME280;60583;50.094;8.748;2024-03-02T04:17:45;99124.16;;;3.90;100.00
72558;BME280;60583;50.094;8.748;2024-03-02T04:20:29;99151.28;;;4.05;100.00
72558;BME280;60583;50.094;8.748;2024-03-02T04:23:13;99153.72;;;4.06;100.00
72558;BME280;60583;50.094;8.748;2024-03-02T04:25:57;99128.28;;;3.99;99.97
72558;BME280;60583;50.094;8.748;2024-03-02T04:28:41;99105.34;;;3.78;100.00
72558;BME280;60583;50.094;8.748;2024-03-02T04:31:25;99142.81;;;4.09;100.00
72558;BME280;60583;50.094;8.748;2024-03-02T04:34:09;99122.47;;;3.82;100.00
72558;BME280;60583;50.094;8.748;2024-03-02T04:36:53;99127.94;;;4.02;100.00
72558;BME280;60583;50.094;8.748;2024-03-02T04:39:37;99134.44;;;4.06;99.81
72558;BME280;60583;50.094;8.748;2024-03-02T04:42:20;99152.53;;;4.09;99.31
72558;BME280;60583;50.094;8.748;2024-03-02T04:45:04;99151.72;;;4.08;99.43
72558;BME280;60583;50.094;8.748;2024-03-02T04:47:49;99134.34;;;3.93;99.86
72558;BME280;60583;50.094;8.748;2024-03-02T04:50:33;99156.31;;;4.00;99.73
72558;BME280;60583;50.094;8.748;2024-03-02T04:53:17;99157.56;;;4.04;99.85
72558;BME280;60583;50.094;8.748;2024-03-02T04:56:01;99135.31;;;3.92;100.00
72558;BME280;60583;50.094;8.748;2024-03-02T04:59:04;99156.94;;;4.02;99.75
72558;BME280;60583;50.094;8.748;2024-03-02T05:01:48;99145.97;;;3.83;100.00
72558;BME280;60583;50.094;8.748;2024-03-02T05:04:32;99139.09;;;3.82;100.00
72558;BME280;60583;50.094;8.748;2024-03-02T05:07:15;99137.34;;;3.90;100.00
72558;BME280;60583;50.094;8.748;2024-03-02T05:09:59;99173.38;;;4.04;100.00
72558;BME280;60583;50.094;8.748;2024-03-02T05:12:43;99161.59;;;4.00;99.51
72558;BME280;60583;50.094;8.748;2024-03-02T05:15:27;99173.31;;;3.97;99.73
72558;BME280;60583;50.094;8.748;2024-03-02T05:18:11;99153.31;;;3.88;100.00
72558;BME280;60583;50.094;8.748;2024-03-02T05:20:55;99164.69;;;3.88;100.00
72558;BME280;60583;50.094;8.748;2024-03-02T05:23:39;99165.97;;;3.93;100.00
72558;BME280;60583;50.094;8.748;2024-03-02T05:26:23;99173.50;;;3.96;100.00
72558;BME280;60583;50.094;8.748;2024-03-02T05:29:07;99140.66;;;3.77;100.00
72558;BME280;60583;50.094;8.748;2024-03-02T05:31:50;99172.81;;;3.87;100.00
72558;BME280;60583;50.094;8.748;2024-03-02T05:34:34;99182.53;;;3.86;100.00
72558;BME280;60583;50.094;8.748;2024-03-02T05:37:19;99186.00;;;3.87;100.00
72558;BME280;60583;50.094;8.748;2024-03-02T05:40:04;99190.34;;;3.95;100.00
72558;BME280;60583;50.094;8.748;2024-03-02T05:42:49;99188.69;;;3.94;100.00
72558;BME280;60583;50.094;8.748;2024-03-02T05:45:33;99158.91;;;3.78;100.00
72558;BME280;60583;50.094;8.748;2024-03-02T05:48:17;99187.28;;;3.76;100.00
72558;BME280;60583;50.094;8.748;2024-03-02T05:51:01;99188.25;;;3.75;100.00
72558;BME280;60583;50.094;8.748;2024-03-02T05:53:45;99184.84;;;3.75;100.00
72558;BME280;60583;50.094;8.748;2024-03-02T05:56:29;99187.22;;;3.70;100.00
72558;BME280;60583;50.094;8.748;2024-03-02T05:59:13;99191.56;;;3.77;100.00
72558;BME280;60583;50.094;8.748;2024-03-02T06:01:57;99205.38;;;3.79;100.00
72558;BME280;60583;50.094;8.748;2024-03-02T06:04:40;99206.34;;;3.78;100.00
72558;BME280;60583;50.094;8.748;2024-03-02T06:07:24;99205.00;;;3.82;100.00
72558;BME280;60583;50.094;8.748;2024-03-02T06:10:08;99208.00;;;3.79;100.00
72558;BME280;60583;50.094;8.748;2024-03-02T06:12:52;99197.97;;;3.90;99.55
72558;BME280;60583;50.094;8.748;2024-03-02T06:15:36;99214.16;;;3.86;100.00
72558;BME280;60583;50.094;8.748;2024-03-02T06:18:20;99226.63;;;3.93;100.00
72558;BME280;60583;50.094;8.748;2024-03-02T06:21:04;99227.63;;;3.92;100.00
72558;BME280;60583;50.094;8.748;2024-03-02T06:23:48;99228.06;;;3.95;99.39
72558;BME280;60583;50.094;8.748;2024-03-02T06:26:32;99219.25;;;3.88;100.00
72558;BME280;60583;50.094;8.748;2024-03-02T06:29:15;99220.06;;;3.88;100.00
72558;BME280;60583;50.094;8.748;2024-03-02T06:32:00;99240.69;;;4.00;100.00
72558;BME280;60583;50.094;8.748;2024-03-02T06:34:44;99231.91;;;3.93;100.00
72558;BME280;60583;50.094;8.748;2024-03-02T06:37:27;99238.31;;;4.05;100.00
72558;BME280;60583;50.094;8.748;2024-03-02T06:40:11;99240.41;;;4.09;100.00
72558;BME280;60583;50.094;8.748;2024-03-02T06:42:56;99232.16;;;3.98;99.12
72558;BME280;60583;50.094;8.748;2024-03-02T06:45:39;99218.63;;;3.86;99.40
72558;BME280;60583;50.094;8.748;2024-03-02T06:48:23;99221.09;;;3.88;100.00
72558;BME280;60583;50.094;8.748;2024-03-02T06:51:08;99240.41;;;4.09;99.99
72558;BME280;60583;50.094;8.748;2024-03-02T06:53:52;99236.22;;;4.15;100.00
72558;BME280;60583;50.094;8.748;2024-03-02T06:56:36;99227.94;;;4.18;100.00
72558;BME280;60583;50.094;8.748;2024-03-02T06:59:21;99222.19;;;4.14;100.00
72558;BME280;60583;50.094;8.748;2024-03-02T07:02:04;99243.63;;;4.26;100.00
72558;BME280;60583;50.094;8.748;2024-03-02T07:04:48;99247.09;;;4.26;100.00
72558;BME280;60583;50.094;8.748;2024-03-02T07:07:35;99248.94;;;4.47;100.00
72558;BME280;60583;50.094;8.748;2024-03-02T07:10:19;99240.94;;;4.62;100.00
72558;BME280;60583;50.094;8.748;2024-03-02T07:13:02;99215.19;;;4.64;100.00
72558;BME280;60583;50.094;8.748;2024-03-02T07:15:46;99229.31;;;4.77;100.00
72558;BME280;60583;50.094;8.748;2024-03-02T07:18:56;99228.94;;;4.80;100.00
72558;BME280;60583;50.094;8.748;2024-03-02T07:21:40;99251.75;;;4.88;100.00
72558;BME280;60583;50.094;8.748;2024-03-02T07:24:24;99258.38;;;4.98;100.00
72558;BME280;60583;50.094;8.748;2024-03-02T07:27:12;99260.19;;;4.98;100.00
72558;BME280;60583;50.094;8.748;2024-03-02T07:29:56;99262.94;;;5.11;100.00
72558;BME280;60583;50.094;8.748;2024-03-02T07:32:40;99219.59;;;4.78;100.00
72558;BME280;60583;50.094;8.748;2024-03-02T07:35:25;99248.16;;;4.95;100.00
72558;BME280;60583;50.094;8.748;2024-03-02T07:38:13;99256.44;;;5.13;100.00
72558;BME280;60583;50.094;8.748;2024-03-02T07:40:57;99259.72;;;5.15;100.00
72558;BME280;60583;50.094;8.748;2024-03-02T07:43:41;99260.94;;;5.20;100.00
72558;BME280;60583;50.094;8.748;2024-03-02T07:46:25;99238.63;;;5.22;100.00
72558;BME280;60583;50.094;8.748;2024-03-02T07:49:09;99214.56;;;5.10;100.00
72558;BME280;60583;50.094;8.748;2024-03-02T07:51:53;99263.09;;;5.31;100.00
72558;BME280;60583;50.094;8.748;2024-03-02T07:54:37;99269.84;;;5.40;100.00
72558;BME280;60583;50.094;8.748;2024-03-02T07:57:21;99276.22;;;5.52;100.00
72558;BME280;60583;50.094;8.748;2024-03-02T08:00:06;99255.50;;;5.55;100.00
72558;BME280;60583;50.094;8.748;2024-03-02T08:02:50;99266.19;;;5.68;100.00
72558;BME280;60583;50.094;8.748;2024-03-02T08:05:37;99259.25;;;5.74;100.00
72558;BME280;60583;50.094;8.748;2024-03-02T08:08:22;99266.25;;;6.22;100.00
72558;BME280;60583;50.094;8.748;2024-03-02T08:11:06;99257.13;;;6.44;99.04
72558;BME280;60583;50.094;8.748;2024-03-02T08:13:50;99252.31;;;6.81;97.96
72558;BME280;60583;50.094;8.748;2024-03-02T08:16:35;99280.06;;;7.37;96.96
72558;BME280;60583;50.094;8.748;2024-03-02T08:19:19;99278.84;;;7.27;96.41
72558;BME280;60583;50.094;8.748;2024-03-02T08:22:03;99277.44;;;7.37;96.73
72558;BME280;60583;50.094;8.748;2024-03-02T08:24:47;99242.97;;;7.37;94.63
72558;BME280;60583;50.094;8.748;2024-03-02T08:27:31;99284.25;;;7.91;93.95
72558;BME280;60583;50.094;8.748;2024-03-02T08:30:16;99285.66;;;7.93;91.63
72558;BME280;60583;50.094;8.748;2024-03-02T08:32:59;99287.78;;;7.71;93.06
72558;BME280;60583;50.094;8.748;2024-03-02T08:35:44;99287.78;;;7.71;93.01
72558;BME280;60583;50.094;8.748;2024-03-02T08:38:28;99283.09;;;7.60;92.13
72558;BME280;60583;50.094;8.748;2024-03-02T08:41:12;99289.00;;;7.69;92.57
72558;BME280;60583;50.094;8.748;2024-03-02T08:43:57;99285.97;;;7.59;93.26
72558;BME280;60583;50.094;8.748;2024-03-02T08:46:41;99286.19;;;7.57;92.65
72558;BME280;60583;50.094;8.748;2024-03-02T08:49:25;99291.88;;;7.61;92.61
72558;BME280;60583;50.094;8.748;2024-03-02T08:52:09;99258.84;;;7.57;92.02
72558;BME280;60583;50.094;8.748;2024-03-02T08:54:53;99252.91;;;7.61;91.56
72558;BME280;60583;50.094;8.748;2024-03-02T08:57:37;99294.44;;;7.94;91.66
72558;BME280;60583;50.094;8.748;2024-03-02T09:00:22;99300.81;;;7.93;91.53
72558;BME280;60583;50.094;8.748;2024-03-02T09:03:06;99303.22;;;8.07;92.25
72558;BME280;60583;50.094;8.748;2024-03-02T09:05:51;99307.47;;;8.15;91.21
72558;BME280;60583;50.094;8.748;2024-03-02T09:08:34;99278.88;;;8.17;91.16
72558;BME280;60583;50.094;8.748;2024-03-02T09:11:20;99295.28;;;8.52;90.54
72558;BME280;60583;50.094;8.748;2024-03-02T09:14:03;99277.69;;;8.57;88.97
72558;BME280;60583;50.094;8.748;2024-03-02T09:16:49;99298.06;;;8.70;88.99
72558;BME280;60583;50.094;8.748;2024-03-02T09:19:32;99279.22;;;8.71;88.06
72558;BME280;60583;50.094;8.748;2024-03-02T09:22:16;99263.19;;;8.84;87.84
72558;BME280;60583;50.094;8.748;2024-03-02T09:25:00;99298.25;;;9.31;86.80
72558;BME280;60583;50.094;8.748;2024-03-02T09:27:44;99297.69;;;9.47;85.92
72558;BME280;60583;50.094;8.748;2024-03-02T09:30:28;99267.94;;;9.32;83.07
72558;BME280;60583;50.094;8.748;2024-03-02T09:33:12;99287.97;;;9.59;82.53
72558;BME280;60583;50.094;8.748;2024-03-02T09:35:56;99285.63;;;9.69;80.55
72558;BME280;60583;50.094;8.748;2024-03-02T09:38:40;99266.22;;;9.62;80.87
72558;BME280;60583;50.094;8.748;2024-03-02T09:41:24;99261.53;;;9.64;80.34
72558;BME280;60583;50.094;8.748;2024-03-02T09:44:08;99259.09;;;9.81;80.80
72558;BME280;60583;50.094;8.748;2024-03-02T09:46:52;99281.97;;;10.24;79.17
72558;BME280;60583;50.094;8.748;2024-03-02T09:49:36;99259.59;;;10.44;78.68
72558;BME280;60583;50.094;8.748;2024-03-02T09:52:20;99282.44;;;10.81;77.63
72558;BME280;60583;50.094;8.748;2024-03-02T09:55:05;99290.06;;;11.19;76.16
72558;BME280;60583;50.094;8.748;2024-03-02T09:57:49;99268.09;;;11.05;74.91
72558;BME280;60583;50.094;8.748;2024-03-02T10:00:33;99274.44;;;11.57;73.84
72558;BME280;60583;50.094;8.748;2024-03-02T10:03:18;99290.34;;;11.52;73.41
72558;BME280;60583;50.094;8.748;2024-03-02T10:06:21;99279.28;;;12.18;71.66
72558;BME280;60583;50.094;8.748;2024-03-02T10:09:06;99284.97;;;12.22;71.09
72558;BME280;60583;50.094;8.748;2024-03-02T10:11:50;99276.41;;;12.48;68.70
72558;BME280;60583;50.094;8.748;2024-03-02T10:14:34;99270.44;;;12.57;68.18
72558;BME280;60583;50.094;8.748;2024-03-02T10:17:18;99275.41;;;12.65;67.19
72558;BME280;60583;50.094;8.748;2024-03-02T10:20:22;99246.34;;;13.02;66.18
72558;BME280;60583;50.094;8.748;2024-03-02T10:23:25;99279.91;;;13.38;64.01
72558;BME280;60583;50.094;8.748;2024-03-02T10:26:18;99268.03;;;13.67;63.36
72558;BME280;60583;50.094;8.748;2024-03-02T10:29:02;99237.69;;;13.45;63.65
72558;BME280;60583;50.094;8.748;2024-03-02T10:31:46;99267.22;;;14.27;61.59
72558;BME280;60583;50.094;8.748;2024-03-02T10:34:30;99264.66;;;15.12;59.14
72558;BME280;60583;50.094;8.748;2024-03-02T10:37:15;99243.72;;;15.14;57.44
72558;BME280;60583;50.094;8.748;2024-03-02T10:40:07;99254.59;;;16.90;53.38
72558;BME280;60583;50.094;8.748;2024-03-02T10:42:54;99248.97;;;17.32;51.38
72558;BME280;60583;50.094;8.748;2024-03-02T10:45:39;99253.94;;;18.19;49.51
72558;BME280;60583;50.094;8.748;2024-03-02T10:48:25;99255.81;;;18.18;48.93
72558;BME280;60583;50.094;8.748;2024-03-02T10:51:10;99252.78;;;20.56;43.75
72558;BME280;60583;50.094;8.748;2024-03-02T10:53:55;99232.78;;;20.71;43.65
72558;BME280;60583;50.094;8.748;2024-03-02T10:56:40;99221.16;;;20.89;41.16
72558;BME280;60583;50.094;8.748;2024-03-02T10:59:32;99235.06;;;20.21;42.46
72558;BME280;60583;50.094;8.748;2024-03-02T11:02:17;99229.69;;;20.96;40.68
72558;BME280;60583;50.094;8.748;2024-03-02T11:05:04;99218.38;;;21.58;39.81
72558;BME280;60583;50.094;8.748;2024-03-02T11:07:53;99212.78;;;20.48;41.02
72558;BME280;60583;50.094;8.748;2024-03-02T11:10:53;99206.13;;;20.17;42.05
72558;BME280;60583;50.094;8.748;2024-03-02T11:13:42;99218.75;;;21.52;39.46
72558;BME280;60583;50.094;8.748;2024-03-02T11:16:36;99221.53;;;22.20;37.02
72558;BME280;60583;50.094;8.748;2024-03-02T11:19:20;99214.00;;;22.17;37.37
72558;BME280;60583;50.094;8.748;2024-03-02T11:22:04;99216.38;;;21.78;38.22
72558;BME280;60583;50.094;8.748;2024-03-02T11:24:49;99207.81;;;22.39;36.72
72558;BME280;60583;50.094;8.748;2024-03-02T11:27:59;99206.34;;;22.82;36.90
72558;BME280;60583;50.094;8.748;2024-03-02T11:33:30;99213.03;;;24.13;34.51
72558;BME280;60583;50.094;8.748;2024-03-02T11:36:15;99207.59;;;24.13;33.95
72558;BME280;60583;50.094;8.748;2024-03-02T11:38:59;99203.22;;;25.19;31.94
72558;BME280;60583;50.094;8.748;2024-03-02T11:41:43;99187.56;;;25.92;31.01
72558;BME280;60583;50.094;8.748;2024-03-02T11:44:29;99194.69;;;24.44;32.56
72558;BME280;60583;50.094;8.748;2024-03-02T11:47:15;99181.72;;;25.01;32.33
72558;BME280;60583;50.094;8.748;2024-03-02T11:49:59;99181.50;;;25.40;32.21
72558;BME280;60583;50.094;8.748;2024-03-02T11:52:43;99184.91;;;25.03;32.39
72558;BME280;60583;50.094;8.748;2024-03-02T11:55:28;99158.56;;;22.90;35.13
72558;BME280;60583;50.094;8.748;2024-03-02T11:58:14;99178.84;;;21.39;38.20
72558;BME280;60583;50.094;8.748;2024-03-02T12:01:04;99162.84;;;20.73;39.41
72558;BME280;60583;50.094;8.748;2024-03-02T12:03:48;99135.16;;;20.01;41.54
72558;BME280;60583;50.094;8.748;2024-03-02T12:06:32;99151.19;;;20.16;40.71
72558;BME280;60583;50.094;8.748;2024-03-02T12:09:16;99159.34;;;20.54;38.13
72558;BME280;60583;50.094;8.748;2024-03-02T12:12:06;99130.66;;;22.26;36.19
72558;BME280;60583;50.094;8.748;2024-03-02T12:14:51;99153.06;;;23.56;34.54
72558;BME280;60583;50.094;8.748;2024-03-02T12:17:39;99144.09;;;24.03;34.09
72558;BME280;60583;50.094;8.748;2024-03-02T12:20:24;99140.13;;;25.12;32.00
72558;BME280;60583;50.094;8.748;2024-03-02T12:23:08;99124.81;;;25.28;30.33
72558;BME280;60583;50.094;8.748;2024-03-02T12:25:52;99136.72;;;25.24;30.80
72558;BME280;60583;50.094;8.748;2024-03-02T12:28:37;99129.69;;;25.61;30.04
72558;BME280;60583;50.094;8.748;2024-03-02T12:31:21;99115.16;;;26.69;28.96
72558;BME280;60583;50.094;8.748;2024-03-02T12:34:05;99130.44;;;26.70;27.98
72558;BME280;60583;50.094;8.748;2024-03-02T12:36:49;99127.34;;;26.18;28.74
72558;BME280;60583;50.094;8.748;2024-03-02T12:39:36;99121.50;;;26.81;27.55
72558;BME280;60583;50.094;8.748;2024-03-02T12:42:20;99122.66;;;25.89;28.10
72558;BME280;60583;50.094;8.748;2024-03-02T12:45:05;99108.25;;;26.00;28.77
72558;BME280;60583;50.094;8.748;2024-03-02T12:47:50;99105.66;;;24.99;29.64
72558;BME280;60583;50.094;8.748;2024-03-02T12:50:35;99103.06;;;25.87;28.79
72558;BME280;60583;50.094;8.748;2024-03-02T12:53:21;99101.13;;;26.37;27.77
72558;BME280;60583;50.094;8.748;2024-03-02T12:56:05;99097.28;;;26.71;27.74
72558;BME280;60583;50.094;8.748;2024-03-02T12:58:55;99105.78;;;26.78;26.46
72558;BME280;60583;50.094;8.748;2024-03-02T13:01:52;99093.44;;;26.51;25.81
72558;BME280;60583;50.094;8.748;2024-03-02T13:04:37;99102.03;;;26.00;26.56
72558;BME280;60583;50.094;8.748;2024-03-02T13:07:21;99101.06;;;26.25;26.40
72558;BME280;60583;50.094;8.748;2024-03-02T13:10:06;99094.75;;;26.04;27.18
72558;BME280;60583;50.094;8.748;2024-03-02T13:12:54;99085.25;;;25.43;27.31
72558;BME280;60583;50.094;8.748;2024-03-02T13:15:37;99082.88;;;25.50;27.06
72558;BME280;60583;50.094;8.748;2024-03-02T13:18:22;99076.00;;;25.94;26.91
72558;BME280;60583;50.094;8.748;2024-03-02T13:21:07;99083.13;;;25.86;27.15
72558;BME280;60583;50.094;8.748;2024-03-02T13:23:51;99078.25;;;25.33;28.18
72558;BME280;60583;50.094;8.748;2024-03-02T13:26:35;99054.91;;;23.61;31.56
72558;BME280;60583;50.094;8.748;2024-03-02T13:29:19;99046.59;;;22.43;32.32
72558;BME280;60583;50.094;8.748;2024-03-02T13:32:03;99048.53;;;20.71;35.88
72558;BME280;60583;50.094;8.748;2024-03-02T13:34:47;99065.06;;;21.02;35.96
72558;BME280;60583;50.094;8.748;2024-03-02T13:37:32;99068.66;;;20.32;36.01
72558;BME280;60583;50.094;8.748;2024-03-02T13:40:16;99057.47;;;19.41;38.25
72558;BME280;60583;50.094;8.748;2024-03-02T13:43:03;99052.13;;;18.78;39.84
72558;BME280;60583;50.094;8.748;2024-03-02T13:45:47;99061.47;;;18.62;40.30
72558;BME280;60583;50.094;8.748;2024-03-02T13:48:31;99026.88;;;17.38;42.92
72558;BME280;60583;50.094;8.748;2024-03-02T13:51:15;99048.50;;;17.22;43.73
72558;BME280;60583;50.094;8.748;2024-03-02T13:53:59;99047.72;;;17.02;44.22
72558;BME280;60583;50.094;8.748;2024-03-02T13:56:43;99042.31;;;17.12;44.27
72558;BME280;60583;50.094;8.748;2024-03-02T13:59:27;99018.91;;;17.07;44.69
72558;BME280;60583;50.094;8.748;2024-03-02T14:02:12;99033.44;;;17.11;44.80
72558;BME280;60583;50.094;8.748;2024-03-02T14:04:56;99033.28;;;16.63;45.92
72558;BME280;60583;50.094;8.748;2024-03-02T14:07:43;99014.94;;;16.75;45.43
72558;BME280;60583;50.094;8.748;2024-03-02T14:10:27;98991.03;;;16.33;46.17
72558;BME280;60583;50.094;8.748;2024-03-02T14:13:12;99017.13;;;16.63;46.46
72558;BME280;60583;50.094;8.748;2024-03-02T14:15:56;99000.44;;;16.45;45.00
72558;BME280;60583;50.094;8.748;2024-03-02T14:18:41;99019.28;;;16.66;45.33
72558;BME280;60583;50.094;8.748;2024-03-02T14:21:25;99014.97;;;16.59;45.11
72558;BME280;60583;50.094;8.748;2024-03-02T14:24:09;99015.22;;;16.73;44.56
72558;BME280;60583;50.094;8.748;2024-03-02T14:26:53;99002.03;;;16.56;44.31
72558;BME280;60583;50.094;8.748;2024-03-02T14:29:38;98996.63;;;16.51;44.51
72558;BME280;60583;50.094;8.748;2024-03-02T14:32:23;98964.38;;;15.91;45.34
72558;BME280;60583;50.094;8.748;2024-03-02T14:35:07;98998.81;;;16.29;45.04
72558;BME280;60583;50.094;8.748;2024-03-02T14:37:53;98996.13;;;16.29;45.60
72558;BME280;60583;50.094;8.748;2024-03-02T14:40:37;99002.03;;;16.21;45.86